createdAt,value
2019-03-05T00:00:01.970Z,99378.23
2019-03-05T00:01:19.356Z,99379.38
2019-03-05T00:02:22.797Z,99370.91
2019-03-05T00:03:26.336Z,99376.76
2019-03-05T00:04:29.860Z,99375.39
2019-03-05T00:05:33.390Z,99373.78
2019-03-05T00:06:36.853Z,99378.48
2019-03-05T00:07:40.290Z,99367.84
2019-03-05T00:08:43.763Z,99377.46
2019-03-05T00:09:47.228Z,99387.42
2019-03-05T00:10:50.668Z,99384.45
2019-03-05T00:11:54.139Z,99385.03
2019-03-05T00:12:57.572Z,99388.35
2019-03-05T00:14:01.035Z,99388.35
2019-03-05T00:15:06.062Z,99381.58
2019-03-05T00:16:09.496Z,99380.20
2019-03-05T00:17:12.963Z,99380.20
2019-03-05T00:18:16.469Z,99379.98
2019-03-05T00:19:19.908Z,99384.10
2019-03-05T00:20:23.394Z,99380.33
2019-03-05T00:21:26.841Z,99389.14
2019-03-05T00:22:30.370Z,99391.89
2019-03-05T00:23:50.231Z,99383.20
2019-03-05T00:25:02.081Z,99385.38
2019-03-05T00:26:05.565Z,99381.61
2019-03-05T00:27:09.073Z,99388.47
2019-03-05T00:28:30.404Z,99387.67
2019-03-05T00:29:39.805Z,99384.93
2019-03-05T00:30:46.441Z,99392.94
2019-03-05T00:31:50.246Z,99389.97
2019-03-05T00:33:02.467Z,99392.14
2019-03-05T00:34:08.954Z,99391.92
2019-03-05T00:35:36.287Z,99390.32
2019-03-05T00:36:43.105Z,99395.02
2019-03-05T00:37:49.590Z,99395.56
2019-03-05T00:39:12.401Z,99402.42
2019-03-05T00:40:21.520Z,99401.05
2019-03-05T00:41:33.777Z,99403.57
2019-03-05T00:43:05.902Z,99406.09
2019-03-05T00:44:29.937Z,99406.09
2019-03-05T00:45:52.801Z,99398.97
2019-03-05T00:47:08.123Z,99404.47
2019-03-05T00:48:41.305Z,99406.41
2019-03-05T00:49:59.351Z,99396.58
2019-03-05T00:51:11.693Z,99407.56
2019-03-05T00:52:30.129Z,99409.50
2019-03-05T00:53:36.638Z,99402.42
2019-03-05T00:54:45.946Z,99404.94
2019-03-05T00:56:01.469Z,99404.71
2019-03-05T00:57:16.640Z,99402.77
2019-03-05T00:58:31.904Z,99401.97
2019-03-05T00:59:38.421Z,99408.61
2019-03-05T01:00:50.681Z,99404.71
2019-03-05T01:02:15.285Z,99409.17
2019-03-05T01:03:27.623Z,99398.99
2019-03-05T01:04:40.180Z,99403.69
2019-03-05T01:06:14.982Z,99402.09
2019-03-05T01:07:18.737Z,99403.46
2019-03-05T01:08:22.400Z,99401.06
2019-03-05T01:09:26.143Z,99401.06
2019-03-05T01:10:29.666Z,99402.44
2019-03-05T01:11:33.118Z,99403.01
2019-03-05T01:12:36.709Z,99411.83
2019-03-05T01:13:40.501Z,99402.21
2019-03-05T01:14:44.184Z,99406.91
2019-03-05T01:15:47.834Z,99400.84
2019-03-05T01:16:51.450Z,99396.72
2019-03-05T01:17:54.978Z,99412.97
2019-03-05T01:18:58.425Z,99410.22
2019-03-05T01:20:01.903Z,99419.83
2019-03-05T01:21:05.425Z,99414.12
2019-03-05T01:22:08.879Z,99414.34
2019-03-05T01:23:12.336Z,99428.64
2019-03-05T01:24:15.928Z,99421.78
2019-03-05T01:25:27.969Z,99418.45
2019-03-05T01:26:31.571Z,99410.00
2019-03-05T01:27:35.016Z,99413.31
2019-03-05T01:28:38.471Z,99414.12
2019-03-05T01:29:41.921Z,99416.86
2019-03-05T01:31:03.354Z,99427.05
2019-03-05T01:32:11.458Z,99412.52
2019-03-05T01:33:16.713Z,99410.92
2019-03-05T01:34:24.369Z,99417.78
2019-03-05T01:35:32.343Z,99415.61
2019-03-05T01:36:43.147Z,99423.02
2019-03-05T01:37:46.604Z,99428.51
2019-03-05T01:38:57.714Z,99421.42
2019-03-05T01:40:05.513Z,99430.80
2019-03-05T01:41:09.358Z,99430.23
2019-03-05T01:42:12.807Z,99429.43
2019-03-05T01:43:16.257Z,99424.73
2019-03-05T01:44:19.714Z,99429.77
2019-03-05T01:45:23.161Z,99436.29
2019-03-05T01:46:26.640Z,99433.32
2019-03-05T01:47:30.094Z,99433.89
2019-03-05T01:48:33.539Z,99436.64
2019-03-05T01:49:36.993Z,99435.27
2019-03-05T01:50:40.513Z,99448.77
2019-03-05T01:51:44.084Z,99451.73
2019-03-05T01:52:47.532Z,99437.78
2019-03-05T01:53:50.980Z,99450.71
2019-03-05T01:54:54.443Z,99438.36
2019-03-05T01:55:57.898Z,99442.47
2019-03-05T01:57:01.369Z,99439.50
2019-03-05T01:58:04.892Z,99446.14
2019-03-05T01:59:08.484Z,99444.77
2019-03-05T02:00:12.654Z,99446.14
2019-03-05T02:01:16.097Z,99444.55
2019-03-05T02:02:19.806Z,99454.38
2019-03-05T02:03:23.403Z,99446.71
2019-03-05T02:04:26.855Z,99444.77
2019-03-05T02:05:30.367Z,99452.43
2019-03-05T02:06:33.888Z,99453.00
2019-03-05T02:07:37.494Z,99445.34
2019-03-05T02:08:41.084Z,99451.63
2019-03-05T02:09:44.607Z,99453.00
2019-03-05T02:10:48.180Z,99451.63
2019-03-05T02:11:51.657Z,99454.95
2019-03-05T02:12:55.141Z,99450.03
2019-03-05T02:13:58.651Z,99445.91
2019-03-05T02:15:02.186Z,99445.34
2019-03-05T02:16:05.625Z,99447.06
2019-03-05T02:17:09.135Z,99453.34
2019-03-05T02:18:18.276Z,99451.18
2019-03-05T02:19:39.341Z,99449.80
2019-03-05T02:20:42.869Z,99451.18
2019-03-05T02:21:46.334Z,99459.41
2019-03-05T02:22:58.845Z,99453.70
2019-03-05T02:24:13.898Z,99453.70
2019-03-05T02:25:20.610Z,99459.76
2019-03-05T02:26:46.310Z,99452.33
2019-03-05T02:27:53.088Z,99446.61
2019-03-05T02:29:08.135Z,99453.47
2019-03-05T02:30:33.276Z,99462.85
2019-03-05T02:32:06.536Z,99458.39
2019-03-05T02:33:40.987Z,99462.85
2019-03-05T02:34:56.388Z,99452.22
2019-03-05T02:36:33.757Z,99459.30
2019-03-05T02:37:43.020Z,99456.33
2019-03-05T02:39:14.875Z,99454.16
2019-03-05T02:40:21.373Z,99456.64
2019-03-05T02:41:30.799Z,99458.82
2019-03-05T02:42:40.049Z,99459.39
2019-03-05T02:43:52.264Z,99459.39
2019-03-05T02:45:13.962Z,99457.80
2019-03-05T02:46:40.773Z,99455.05
2019-03-05T02:47:58.978Z,99455.62
2019-03-05T02:49:11.322Z,99450.70
2019-03-05T02:50:41.553Z,99454.59
2019-03-05T02:52:02.216Z,99458.71
2019-03-05T02:53:11.676Z,99457.91
2019-03-05T02:54:32.717Z,99456.31
2019-03-05T02:55:39.253Z,99457.11
2019-03-05T02:56:45.861Z,99456.88
2019-03-05T02:57:48.102Z,99456.31
2019-03-05T02:58:50.417Z,99461.00
2019-03-05T02:59:53.863Z,99461.00
2019-03-05T03:01:07.490Z,99458.03
2019-03-05T03:02:12.801Z,99455.06
2019-03-05T03:03:17.880Z,99461.34
2019-03-05T03:04:25.971Z,99459.75
2019-03-05T03:05:36.705Z,99461.69
2019-03-05T03:06:40.244Z,99457.58
2019-03-05T03:07:43.711Z,99461.92
2019-03-05T03:08:47.154Z,99454.83
2019-03-05T03:09:53.670Z,99457.34
2019-03-05T03:10:57.134Z,99457.12
2019-03-05T03:12:00.598Z,99457.34
2019-03-05T03:13:04.210Z,99456.32
2019-03-05T03:14:07.743Z,99457.12
2019-03-05T03:15:11.800Z,99457.92
2019-03-05T03:16:15.337Z,99457.92
2019-03-05T03:17:18.790Z,99452.20
2019-03-05T03:18:22.262Z,99455.75
2019-03-05T03:19:25.740Z,99454.14
2019-03-05T03:20:29.180Z,99454.38
2019-03-05T03:21:32.647Z,99455.52
2019-03-05T03:22:36.102Z,99459.64
2019-03-05T03:23:39.538Z,99453.34
2019-03-05T03:24:43.010Z,99458.03
2019-03-05T03:25:46.475Z,99453.92
2019-03-05T03:26:49.911Z,99456.66
2019-03-05T03:27:53.509Z,99455.06
2019-03-05T03:28:56.977Z,99452.89
2019-03-05T03:30:00.712Z,99453.69
2019-03-05T03:31:04.228Z,99449.31
2019-03-05T03:32:07.708Z,99452.06
2019-03-05T03:33:11.178Z,99463.88
2019-03-05T03:34:14.647Z,99454.00
2019-03-05T03:35:18.125Z,99452.06
2019-03-05T03:36:21.584Z,99453.78
2019-03-05T03:37:25.141Z,99456.18
2019-03-05T03:38:28.632Z,99461.44
2019-03-05T03:39:32.091Z,99462.23
2019-03-05T03:40:35.558Z,99459.27
2019-03-05T03:41:38.994Z,99461.21
2019-03-05T03:42:42.603Z,99462.58
2019-03-05T03:43:46.052Z,99463.38
2019-03-05T03:44:49.538Z,99470.81
2019-03-05T03:45:53.003Z,99462.36
2019-03-05T03:46:56.439Z,99474.36
2019-03-05T03:48:00.046Z,99468.64
2019-03-05T03:49:03.538Z,99471.16
2019-03-05T03:50:07.312Z,99471.16
2019-03-05T03:51:10.780Z,99471.96
2019-03-05T03:52:14.215Z,99481.34
2019-03-05T03:53:17.658Z,99467.62
2019-03-05T03:54:21.149Z,99482.70
2019-03-05T03:55:24.649Z,99476.42
2019-03-05T03:56:28.194Z,99468.98
2019-03-05T03:57:31.646Z,99479.97
2019-03-05T03:58:35.152Z,99482.36
2019-03-05T03:59:38.777Z,99477.45
2019-03-05T04:00:42.229Z,99485.91
2019-03-05T04:01:45.727Z,99481.45
2019-03-05T04:02:49.543Z,99499.20
2019-03-05T04:03:53.059Z,99499.66
2019-03-05T04:04:56.543Z,99494.62
2019-03-05T04:06:00.079Z,99493.70
2019-03-05T04:07:03.600Z,99499.88
2019-03-05T04:08:10.312Z,99486.84
2019-03-05T04:09:12.299Z,99493.72
2019-03-05T04:10:16.500Z,99486.86
2019-03-05T04:11:19.984Z,99485.05
2019-03-05T04:12:23.407Z,99487.33
2019-03-05T04:13:26.875Z,99487.77
2019-03-05T04:14:30.341Z,99494.77
2019-03-05T04:15:33.865Z,99490.42
2019-03-05T04:16:37.401Z,99481.17
2019-03-05T04:17:40.910Z,99483.42
2019-03-05T04:18:44.361Z,99482.95
2019-03-05T04:19:47.826Z,99472.07
2019-03-05T04:20:52.553Z,99478.34
2019-03-05T04:21:56.154Z,99476.04
2019-03-05T04:22:59.613Z,99478.50
2019-03-05T04:24:03.055Z,99474.81
2019-03-05T04:25:08.156Z,99475.25
2019-03-05T04:26:11.620Z,99467.22
2019-03-05T04:27:15.097Z,99472.68
2019-03-05T04:28:18.569Z,99474.13
2019-03-05T04:29:22.017Z,99468.70
2019-03-05T04:30:25.467Z,99469.45
2019-03-05T04:31:28.954Z,99462.42
2019-03-05T04:32:32.395Z,99460.41
2019-03-05T04:33:35.849Z,99457.06
2019-03-05T04:34:39.297Z,99464.16
2019-03-05T04:35:42.751Z,99462.29
2019-03-05T04:36:46.220Z,99459.76
2019-03-05T04:37:49.693Z,99459.17
2019-03-05T04:38:53.144Z,99459.26
2019-03-05T04:39:56.593Z,99461.33
2019-03-05T04:41:00.030Z,99458.58
2019-03-05T04:42:03.508Z,99470.47
2019-03-05T04:43:06.955Z,99466.55
2019-03-05T04:44:10.413Z,99470.19
2019-03-05T04:45:29.943Z,99471.12
2019-03-05T04:46:34.052Z,99471.12
2019-03-05T04:47:37.542Z,99468.73
2019-03-05T04:48:42.380Z,99470.91
2019-03-05T04:49:49.998Z,99465.70
2019-03-05T04:50:55.085Z,99471.06
2019-03-05T04:52:00.175Z,99472.55
2019-03-05T04:53:03.782Z,99476.69
2019-03-05T04:54:07.236Z,99472.66
2019-03-05T04:55:10.749Z,99470.16
2019-03-05T04:56:14.202Z,99468.31
2019-03-05T04:57:17.653Z,99469.25
2019-03-05T04:58:21.142Z,99470.41
2019-03-05T04:59:24.584Z,99468.67
2019-03-05T05:00:28.036Z,99466.36
2019-03-05T05:01:31.490Z,99464.88
2019-03-05T05:02:34.950Z,99461.53
2019-03-05T05:03:38.414Z,99461.42
2019-03-05T05:04:41.937Z,99454.08
2019-03-05T05:05:45.392Z,99463.27
2019-03-05T05:06:48.907Z,99463.27
2019-03-05T05:07:52.510Z,99462.37
2019-03-05T05:08:55.977Z,99451.34
2019-03-05T05:09:59.436Z,99451.57
2019-03-05T05:11:02.900Z,99454.77
2019-03-05T05:12:06.345Z,99461.78
2019-03-05T05:13:09.797Z,99461.64
2019-03-05T05:14:13.342Z,99464.40
2019-03-05T05:15:25.909Z,99464.18
2019-03-05T05:16:29.365Z,99458.45
2019-03-05T05:17:32.813Z,99464.90
2019-03-05T05:18:36.270Z,99467.44
2019-03-05T05:19:39.745Z,99462.50
2019-03-05T05:20:43.194Z,99462.78
2019-03-05T05:21:46.718Z,99465.76
2019-03-05T05:22:50.175Z,99464.52
2019-03-05T05:23:53.625Z,99473.14
2019-03-05T05:24:57.107Z,99471.87
2019-03-05T05:26:00.557Z,99470.05
2019-03-05T05:27:04.005Z,99467.30
2019-03-05T05:28:07.465Z,99470.49
2019-03-05T05:29:10.916Z,99467.74
2019-03-05T05:30:31.645Z,99477.27
2019-03-05T05:31:35.094Z,99484.48
2019-03-05T05:32:38.546Z,99480.60
2019-03-05T05:33:41.997Z,99473.22
2019-03-05T05:34:45.447Z,99474.16
2019-03-05T05:35:48.918Z,99479.66
2019-03-05T05:36:52.375Z,99478.28
2019-03-05T05:37:55.825Z,99480.60
2019-03-05T05:38:59.282Z,99480.60
2019-03-05T05:40:26.732Z,99483.36
2019-03-05T05:41:30.201Z,99485.99
2019-03-05T05:42:33.661Z,99479.25
2019-03-05T05:43:37.102Z,99472.14
2019-03-05T05:44:40.553Z,99477.78
2019-03-05T05:45:51.923Z,99468.95
2019-03-05T05:46:55.373Z,99473.08
2019-03-05T05:47:58.832Z,99468.52
2019-03-05T05:49:02.278Z,99481.92
2019-03-05T05:50:06.271Z,99485.33
2019-03-05T05:51:09.748Z,99478.23
2019-03-05T05:52:13.200Z,99473.16
2019-03-05T05:53:16.798Z,99478.31
2019-03-05T05:54:20.252Z,99479.11
2019-03-05T05:55:23.855Z,99476.14
2019-03-05T05:56:27.325Z,99475.70
2019-03-05T05:57:30.794Z,99474.90
2019-03-05T05:58:34.247Z,99475.25
2019-03-05T05:59:37.704Z,99478.37
2019-03-05T06:00:42.932Z,99473.80
2019-03-05T06:01:46.405Z,99476.77
2019-03-05T06:02:49.864Z,99468.97
2019-03-05T06:03:53.316Z,99472.09
2019-03-05T06:04:56.773Z,99470.70
2019-03-05T06:06:00.225Z,99468.75
2019-03-05T06:07:03.703Z,99469.55
2019-03-05T06:08:07.227Z,99468.07
2019-03-05T06:09:10.911Z,99466.91
2019-03-05T06:10:14.834Z,99468.29
2019-03-05T06:11:18.359Z,99470.55
2019-03-05T06:12:21.826Z,99466.64
2019-03-05T06:13:25.283Z,99469.39
2019-03-05T06:14:28.738Z,99472.50
2019-03-05T06:15:32.185Z,99469.75
2019-03-05T06:16:35.640Z,99473.08
2019-03-05T06:17:39.180Z,99480.19
2019-03-05T06:18:42.629Z,99480.32
2019-03-05T06:19:46.086Z,99480.45
2019-03-05T06:20:49.607Z,99481.94
2019-03-05T06:21:53.066Z,99481.14
2019-03-05T06:22:56.538Z,99485.19
2019-03-05T06:24:00.001Z,99485.77
2019-03-05T06:25:04.128Z,99488.30
2019-03-05T06:26:08.701Z,99487.94
2019-03-05T06:27:12.303Z,99495.70
2019-03-05T06:28:15.854Z,99490.09
2019-03-05T06:29:19.308Z,99487.12
2019-03-05T06:30:24.605Z,99496.75
2019-03-05T06:31:28.074Z,99498.70
2019-03-05T06:32:31.526Z,99499.83
2019-03-05T06:33:35.005Z,99496.75
2019-03-05T06:34:38.453Z,99495.48
2019-03-05T06:35:41.979Z,99494.91
2019-03-05T06:36:53.335Z,99499.03
2019-03-05T06:37:56.798Z,99495.62
2019-03-05T06:39:00.271Z,99498.15
2019-03-05T06:40:05.466Z,99499.30
2019-03-05T06:41:08.917Z,99498.42
2019-03-05T06:42:12.370Z,99506.09
2019-03-05T06:43:15.820Z,99501.17
2019-03-05T06:44:19.293Z,99500.95
2019-03-05T06:45:22.747Z,99503.70
2019-03-05T06:46:26.205Z,99501.61
2019-03-05T06:47:29.649Z,99499.30
2019-03-05T06:48:33.101Z,99500.10
2019-03-05T06:49:36.578Z,99506.63
2019-03-05T06:50:40.043Z,99503.66
2019-03-05T06:51:43.481Z,99499.52
2019-03-05T06:52:48.697Z,99505.03
2019-03-05T06:53:52.164Z,99498.50
2019-03-05T06:54:55.625Z,99501.26
2019-03-05T06:55:59.158Z,99503.79
2019-03-05T06:57:02.634Z,99511.03
2019-03-05T06:58:06.213Z,99512.18
2019-03-05T06:59:09.921Z,99521.59
2019-03-05T07:00:18.309Z,99518.97
2019-03-05T07:01:23.269Z,99508.54
2019-03-05T07:02:26.738Z,99517.02
2019-03-05T07:03:30.180Z,99519.99
2019-03-05T07:04:33.658Z,99524.12
2019-03-05T07:06:13.165Z,99519.20
2019-03-05T07:07:16.604Z,99519.64
2019-03-05T07:08:20.074Z,99522.25
2019-03-05T07:09:53.408Z,99521.68
2019-03-05T07:11:02.964Z,99522.48
2019-03-05T07:12:21.313Z,99519.15
2019-03-05T07:13:24.747Z,99525.01
2019-03-05T07:14:59.561Z,99520.30
2019-03-05T07:16:14.714Z,99529.36
2019-03-05T07:17:35.997Z,99531.09
2019-03-05T07:18:42.211Z,99532.60
2019-03-05T07:19:57.578Z,99528.47
2019-03-05T07:21:17.808Z,99530.20
2019-03-05T07:22:30.093Z,99536.51
2019-03-05T07:23:56.001Z,99539.31
2019-03-05T07:24:59.470Z,99539.31
2019-03-05T07:26:02.940Z,99535.91
2019-03-05T07:27:06.492Z,99543.84
2019-03-05T07:28:09.958Z,99541.22
2019-03-05T07:29:13.398Z,99544.67
2019-03-05T07:30:17.779Z,99543.05
2019-03-05T07:31:21.276Z,99541.22
2019-03-05T07:32:24.714Z,99550.84
2019-03-05T07:33:28.185Z,99545.13
2019-03-05T07:34:33.516Z,99546.38
2019-03-05T07:35:37.095Z,99549.70
2019-03-05T07:36:40.650Z,99545.34
2019-03-05T07:37:44.092Z,99549.13
2019-03-05T07:38:47.528Z,99544.55
2019-03-05T07:39:50.994Z,99544.42
2019-03-05T07:40:54.431Z,99550.50
2019-03-05T07:41:57.919Z,99549.70
2019-03-05T07:43:01.386Z,99551.65
2019-03-05T07:44:04.832Z,99546.50
2019-03-05T07:45:10.604Z,99556.12
2019-03-05T07:46:14.039Z,99553.38
2019-03-05T07:47:17.497Z,99558.66
2019-03-05T07:48:20.969Z,99560.03
2019-03-05T07:49:24.409Z,99561.18
2019-03-05T07:50:28.018Z,99566.45
2019-03-05T07:51:31.482Z,99558.78
2019-03-05T07:52:34.943Z,99561.66
2019-03-05T07:53:38.415Z,99558.91
2019-03-05T07:54:41.859Z,99564.95
2019-03-05T07:55:45.300Z,99557.28
2019-03-05T07:56:48.770Z,99560.16
2019-03-05T07:57:52.289Z,99562.11
2019-03-05T07:58:55.701Z,99557.98
2019-03-05T07:59:59.171Z,99562.43
2019-03-05T08:01:02.642Z,99564.16
2019-03-05T08:02:06.054Z,99565.30
2019-03-05T08:03:09.551Z,99570.58
2019-03-05T08:04:13.027Z,99568.98
2019-03-05T08:05:16.799Z,99572.88
2019-03-05T08:06:20.264Z,99571.86
2019-03-05T08:07:23.776Z,99577.58
2019-03-05T08:09:04.732Z,99577.36
2019-03-05T08:10:23.117Z,99576.33
2019-03-05T08:11:26.564Z,99582.76
2019-03-05T08:13:01.160Z,99585.51
2019-03-05T08:14:13.531Z,99578.76
2019-03-05T08:15:20.040Z,99584.83
2019-03-05T08:16:24.383Z,99578.05
2019-03-05T08:17:27.820Z,99580.00
2019-03-05T08:18:31.252Z,99578.62
2019-03-05T08:19:34.740Z,99583.90
2019-03-05T08:20:38.175Z,99590.55
2019-03-05T08:21:41.649Z,99588.72
2019-03-05T08:22:45.179Z,99590.09
2019-03-05T08:23:48.656Z,99591.82
2019-03-05T08:24:52.107Z,99594.57
2019-03-05T08:25:55.544Z,99594.34
2019-03-05T08:26:58.985Z,99594.69
2019-03-05T08:28:02.448Z,99598.02
2019-03-05T08:29:05.957Z,99601.91
2019-03-05T08:30:14.478Z,99603.86
2019-03-05T08:31:17.676Z,99603.41
2019-03-05T08:32:21.112Z,99611.66
2019-03-05T08:33:24.585Z,99609.22
2019-03-05T08:34:28.041Z,99604.30
2019-03-05T08:35:31.481Z,99611.75
2019-03-05T08:36:34.949Z,99609.57
2019-03-05T08:37:38.420Z,99612.32
2019-03-05T08:38:41.946Z,99618.39
2019-03-05T08:39:45.568Z,99617.14
2019-03-05T08:40:49.076Z,99615.19
2019-03-05T08:41:52.615Z,99613.36
2019-03-05T08:42:56.047Z,99613.36
2019-03-05T08:43:59.629Z,99611.19
2019-03-05T08:45:03.261Z,99608.21
2019-03-05T08:46:06.935Z,99618.18
2019-03-05T08:47:10.401Z,99615.44
2019-03-05T08:48:13.865Z,99624.25
2019-03-05T08:49:18.037Z,99617.95
2019-03-05T08:50:21.577Z,99615.33
2019-03-05T08:51:25.021Z,99621.84
2019-03-05T08:52:28.457Z,99618.88
2019-03-05T08:53:32.005Z,99620.59
2019-03-05T08:54:35.444Z,99625.27
2019-03-05T08:55:38.931Z,99623.89
2019-03-05T08:56:42.410Z,99627.20
2019-03-05T08:57:45.849Z,99629.95
2019-03-05T08:58:49.315Z,99629.50
2019-03-05T08:59:52.752Z,99627.33
2019-03-05T09:00:56.209Z,99632.83
2019-03-05T09:01:59.678Z,99631.80
2019-03-05T09:03:03.116Z,99634.55
2019-03-05T09:04:06.583Z,99634.31
2019-03-05T09:05:11.987Z,99635.69
2019-03-05T09:06:15.442Z,99638.44
2019-03-05T09:07:19.045Z,99637.64
2019-03-05T09:08:22.620Z,99633.86
2019-03-05T09:09:26.127Z,99643.48
2019-03-05T09:10:30.065Z,99637.19
2019-03-05T09:11:33.547Z,99638.91
2019-03-05T09:12:37.642Z,99643.02
2019-03-05T09:13:41.166Z,99636.73
2019-03-05T09:14:44.762Z,99644.74
2019-03-05T09:15:48.213Z,99635.92
2019-03-05T09:16:51.687Z,99637.08
2019-03-05T09:17:55.302Z,99642.91
2019-03-05T09:18:58.827Z,99647.03
2019-03-05T09:20:02.356Z,99639.36
2019-03-05T09:21:05.811Z,99636.36
2019-03-05T09:22:09.287Z,99633.61
2019-03-05T09:23:12.809Z,99639.68
2019-03-05T09:24:16.262Z,99642.20
2019-03-05T09:25:19.948Z,99642.20
2019-03-05T09:26:23.405Z,99649.06
2019-03-05T09:27:26.880Z,99645.52
2019-03-05T09:28:30.333Z,99652.73
2019-03-05T09:29:33.789Z,99642.09
2019-03-05T09:30:37.317Z,99645.64
2019-03-05T09:31:40.757Z,99648.95
2019-03-05T09:32:44.244Z,99648.95
2019-03-05T09:33:47.691Z,99648.16
2019-03-05T09:34:51.138Z,99650.91
2019-03-05T09:35:54.665Z,99653.42
2019-03-05T09:36:58.113Z,99649.87
2019-03-05T09:38:01.652Z,99653.19
2019-03-05T09:39:07.449Z,99651.82
2019-03-05T09:40:13.642Z,99650.45
2019-03-05T09:41:17.166Z,99648.05
2019-03-05T09:42:20.613Z,99652.39
2019-03-05T09:43:24.222Z,99652.73
2019-03-05T09:44:27.678Z,99651.14
2019-03-05T09:45:31.194Z,99650.33
2019-03-05T09:46:34.695Z,99649.77
2019-03-05T09:47:38.221Z,99650.33
2019-03-05T09:48:41.726Z,99652.05
2019-03-05T09:49:45.252Z,99652.63
2019-03-05T09:50:48.701Z,99652.63
2019-03-05T09:51:52.158Z,99653.77
2019-03-05T09:52:55.615Z,99658.43
2019-03-05T09:53:59.082Z,99655.69
2019-03-05T09:55:02.602Z,99653.52
2019-03-05T09:56:06.196Z,99649.97
2019-03-05T09:57:09.717Z,99657.63
2019-03-05T09:58:13.246Z,99656.03
2019-03-05T09:59:16.710Z,99658.78
2019-03-05T10:00:21.668Z,99654.42
2019-03-05T10:01:25.126Z,99661.86
2019-03-05T10:02:28.649Z,99652.59
2019-03-05T10:03:32.101Z,99654.77
2019-03-05T10:04:35.578Z,99656.72
2019-03-05T10:05:39.112Z,99659.46
2019-03-05T10:06:42.620Z,99658.66
2019-03-05T10:07:46.209Z,99653.74
2019-03-05T10:08:49.733Z,99658.09
2019-03-05T10:09:53.249Z,99659.80
2019-03-05T10:10:56.697Z,99659.00
2019-03-05T10:12:00.159Z,99661.18
2019-03-05T10:13:04.131Z,99665.30
2019-03-05T10:14:08.050Z,99662.33
2019-03-05T10:15:14.865Z,99669.99
2019-03-05T10:16:18.316Z,99670.34
2019-03-05T10:17:21.807Z,99668.16
2019-03-05T10:18:25.266Z,99666.78
2019-03-05T10:19:28.696Z,99665.19
2019-03-05T10:20:33.927Z,99665.75
2019-03-05T10:21:45.927Z,99672.63
2019-03-05T10:22:42.826Z,99666.33
2019-03-05T10:23:46.734Z,99666.90
2019-03-05T10:24:50.352Z,99675.94
2019-03-05T10:25:53.953Z,99669.95
2019-03-05T10:26:57.501Z,99672.39
2019-03-05T10:28:01.284Z,99672.70
2019-03-05T10:29:06.483Z,99669.64
2019-03-05T10:30:24.711Z,99678.20
2019-03-05T10:31:24.018Z,99670.53
2019-03-05T10:32:27.479Z,99674.88
2019-03-05T10:33:30.996Z,99669.95
2019-03-05T10:34:34.576Z,99671.33
2019-03-05T10:35:38.189Z,99673.84
2019-03-05T10:36:41.784Z,99676.59
2019-03-05T10:37:45.394Z,99673.05
2019-03-05T10:38:56.815Z,99674.96
2019-03-05T10:39:54.165Z,99679.08
2019-03-05T10:40:59.974Z,99677.48
2019-03-05T10:42:03.700Z,99675.30
2019-03-05T10:43:09.178Z,99679.08
2019-03-05T10:44:12.794Z,99677.25
2019-03-05T10:45:18.368Z,99680.00
2019-03-05T10:46:21.903Z,99680.80
2019-03-05T10:47:25.401Z,99684.91
2019-03-05T10:48:30.400Z,99690.41
2019-03-05T10:49:34.092Z,99689.61
2019-03-05T10:50:37.536Z,99688.46
2019-03-05T10:51:41.046Z,99684.69
2019-03-05T10:52:44.602Z,99689.61
2019-03-05T10:53:48.037Z,99683.88
2019-03-05T10:54:51.574Z,99686.86
2019-03-05T10:55:55.039Z,99684.69
2019-03-05T10:56:58.615Z,99685.83
2019-03-05T10:58:02.343Z,99689.14
2019-03-05T10:59:05.848Z,99685.03
2019-03-05T11:00:25.254Z,99688.58
2019-03-05T11:01:28.725Z,99680.91
2019-03-05T11:02:32.237Z,99682.05
2019-03-05T11:03:35.943Z,99699.91
2019-03-05T11:04:45.747Z,99694.17
2019-03-05T11:05:44.907Z,99690.29
2019-03-05T11:06:48.617Z,99697.50
2019-03-05T11:07:52.184Z,99689.26
2019-03-05T11:08:55.648Z,99687.08
2019-03-05T11:09:59.250Z,99692.58
2019-03-05T11:11:13.132Z,99681.59
2019-03-05T11:12:08.087Z,99684.11
2019-03-05T11:13:12.988Z,99684.11
2019-03-05T11:14:16.450Z,99682.16
2019-03-05T11:15:25.066Z,99685.48
2019-03-05T11:16:31.033Z,99686.85
2019-03-05T11:17:33.915Z,99688.00
2019-03-05T11:18:38.428Z,99683.88
2019-03-05T11:19:41.881Z,99691.31
2019-03-05T11:20:45.415Z,99690.52
2019-03-05T11:21:48.877Z,99686.63
2019-03-05T11:22:52.484Z,99697.38
2019-03-05T11:23:55.935Z,99694.97
2019-03-05T11:24:59.401Z,99696.58
2019-03-05T11:26:02.907Z,99695.77
2019-03-05T11:27:06.373Z,99699.89
2019-03-05T11:28:09.962Z,99695.55
2019-03-05T11:29:13.419Z,99699.89
2019-03-05T11:30:22.285Z,99697.95
2019-03-05T11:31:25.735Z,99700.12
2019-03-05T11:32:29.225Z,99698.52
2019-03-05T11:33:32.712Z,99696.34
2019-03-05T11:34:36.240Z,99697.15
2019-03-05T11:35:39.949Z,99698.52
2019-03-05T11:36:43.401Z,99701.27
2019-03-05T11:37:47.193Z,99699.09
2019-03-05T11:38:50.718Z,99709.73
2019-03-05T11:39:55.433Z,99703.78
2019-03-05T11:40:59.772Z,99710.08
2019-03-05T11:42:03.345Z,99710.87
2019-03-05T11:43:09.409Z,99710.64
2019-03-05T11:44:12.936Z,99709.84
2019-03-05T11:45:31.418Z,99712.02
2019-03-05T11:46:34.920Z,99711.78
2019-03-05T11:47:38.374Z,99712.93
2019-03-05T11:48:41.824Z,99718.66
2019-03-05T11:49:45.276Z,99717.28
2019-03-05T11:50:51.378Z,99713.50
2019-03-05T11:51:53.984Z,99713.23
2019-03-05T11:52:57.440Z,99721.48
2019-03-05T11:54:00.891Z,99716.55
2019-03-05T11:55:06.882Z,99718.16
2019-03-05T11:56:10.354Z,99714.61
2019-03-05T11:57:13.801Z,99718.73
2019-03-05T11:58:17.288Z,99718.73
2019-03-05T11:59:20.741Z,99716.55
2019-03-05T12:00:31.040Z,99719.30
2019-03-05T12:01:36.302Z,99722.28
2019-03-05T12:02:39.752Z,99716.33
2019-03-05T12:03:43.279Z,99723.42
2019-03-05T12:04:46.729Z,99720.11
2019-03-05T12:05:50.262Z,99726.16
2019-03-05T12:06:53.801Z,99723.99
2019-03-05T12:07:57.248Z,99719.64
2019-03-05T12:09:00.801Z,99722.62
2019-03-05T12:10:07.033Z,99725.36
2019-03-05T12:11:10.635Z,99723.42
2019-03-05T12:12:14.102Z,99720.67
2019-03-05T12:13:17.634Z,99728.11
2019-03-05T12:14:21.090Z,99733.60
2019-03-05T12:15:26.987Z,99732.80
2019-03-05T12:16:30.531Z,99730.05
2019-03-05T12:17:34.050Z,99727.31
2019-03-05T12:18:37.505Z,99724.33
2019-03-05T12:19:40.954Z,99724.33
2019-03-05T12:20:44.555Z,99723.53
2019-03-05T12:21:48.091Z,99731.20
2019-03-05T12:22:51.541Z,99732.34
2019-03-05T12:23:55.025Z,99725.47
2019-03-05T12:25:01.693Z,99721.92
2019-03-05T12:26:03.829Z,99721.92
2019-03-05T12:27:07.375Z,99726.05
2019-03-05T12:28:11.490Z,99720.89
2019-03-05T12:29:15.121Z,99721.69
2019-03-05T12:30:23.677Z,99724.44
2019-03-05T12:31:27.124Z,99723.64
2019-03-05T12:32:30.618Z,99718.14
2019-03-05T12:33:34.070Z,99720.89
2019-03-05T12:34:37.523Z,99723.41
2019-03-05T12:35:40.975Z,99726.38
2019-03-05T12:36:44.434Z,99720.66
2019-03-05T12:37:48.653Z,99725.02
2019-03-05T12:38:52.101Z,99726.95
2019-03-05T12:39:55.557Z,99728.90
2019-03-05T12:40:59.006Z,99728.90
2019-03-05T12:42:03.665Z,99730.27
2019-03-05T12:43:07.280Z,99732.21
2019-03-05T12:44:10.725Z,99730.84
2019-03-05T12:45:16.033Z,99727.30
2019-03-05T12:46:19.483Z,99731.41
2019-03-05T12:47:22.937Z,99734.95
2019-03-05T12:48:26.478Z,99735.30
2019-03-05T12:49:29.992Z,99732.78